OEITH LEPA-LFMQ
Flight info
| Callsign | OEITH |
|---|---|
| Flight time | 0h 46m |
| Altitude | 38000 |
| Route | MEROS DCT LAPIT DCT CHELY N853 LUMAS UM976 SOSUR Z16 AGAKI Z152 LIPSU |
| Aircraft | CL60/M-SDFGHIRWXY/H |
Departure
| Time | 2026-05-06 13:27 |
|---|---|
| Airport | Palma de Mallorca Airport (LEPA) |
Arrival
| Time | 2026-05-06 14:14 |
|---|---|
| Airport | Le Castellet Airport (LFMQ) |
| Time | Latitude | Longitude | Altitude | Speed | Heading |
|---|---|---|---|---|---|
| 2026-05-06 13:02 | 39.54148 | 2.72771 | 34 ft | 0 kts | 146° |
| 2026-05-06 13:24 | 39.54147 | 2.72771 | 33 ft | 0 kts | 142° |
| 2026-05-06 13:25 | 39.54160 | 2.72787 | 33 ft | 4 kts | 14° |
| 2026-05-06 13:25 | 39.54189 | 2.72804 | 33 ft | 7 kts | 45° |
| 2026-05-06 13:25 | 39.54207 | 2.72879 | 34 ft | 9 kts | 90° |
| 2026-05-06 13:25 | 39.54164 | 2.72959 | 34 ft | 12 kts | 115° |
| 2026-05-06 13:26 | 39.54151 | 2.73083 | 35 ft | 15 kts | 94° |
| 2026-05-06 13:26 | 39.54147 | 2.73214 | 36 ft | 10 kts | 81° |
| 2026-05-06 13:26 | 39.54191 | 2.73313 | 36 ft | 20 kts | 58° |
| 2026-05-06 13:26 | 39.54457 | 2.73870 | 37 ft | 127 kts | 59° |
| 2026-05-06 13:27 | 39.55032 | 2.75116 | 448 ft | 181 kts | 62° |
| 2026-05-06 13:27 | 39.55656 | 2.76532 | 1612 ft | 191 kts | 60° |
| 2026-05-06 13:27 | 39.56325 | 2.78027 | 2707 ft | 208 kts | 59° |
| 2026-05-06 13:27 | 39.57089 | 2.79700 | 3870 ft | 225 kts | 60° |
| 2026-05-06 13:28 | 39.57849 | 2.81456 | 4758 ft | 229 kts | 60° |
| 2026-05-06 13:28 | 39.58626 | 2.83263 | 5463 ft | 229 kts | 59° |
| 2026-05-06 13:28 | 39.59412 | 2.85017 | 6298 ft | 227 kts | 59° |
| 2026-05-06 13:28 | 39.60215 | 2.86787 | 7191 ft | 234 kts | 58° |
| 2026-05-06 13:29 | 39.61040 | 2.88621 | 8142 ft | 242 kts | 58° |
| 2026-05-06 13:29 | 39.61886 | 2.90497 | 9078 ft | 249 kts | 59° |
| 2026-05-06 13:29 | 39.62821 | 2.92491 | 9725 ft | 279 kts | 58° |
| 2026-05-06 13:29 | 39.63985 | 2.94628 | 10614 ft | 304 kts | 51° |
| 2026-05-06 13:30 | 39.65358 | 2.96857 | 11409 ft | 333 kts | 51° |
| 2026-05-06 13:30 | 39.66860 | 2.99294 | 12342 ft | 353 kts | 51° |
| 2026-05-06 13:30 | 39.68383 | 3.01770 | 13167 ft | 360 kts | 51° |
| 2026-05-06 13:30 | 39.69967 | 3.04345 | 14057 ft | 365 kts | 51° |
| 2026-05-06 13:31 | 39.71544 | 3.06908 | 14927 ft | 370 kts | 51° |
| 2026-05-06 13:31 | 39.73164 | 3.09542 | 15823 ft | 376 kts | 51° |
| 2026-05-06 13:31 | 39.74790 | 3.12188 | 16689 ft | 382 kts | 51° |
| 2026-05-06 13:31 | 39.76465 | 3.14914 | 17575 ft | 389 kts | 51° |
| 2026-05-06 13:32 | 39.78168 | 3.17687 | 18500 ft | 397 kts | 51° |
| 2026-05-06 13:32 | 39.79886 | 3.20487 | 19395 ft | 404 kts | 51° |
| 2026-05-06 13:32 | 39.81648 | 3.23361 | 20284 ft | 410 kts | 51° |
| 2026-05-06 13:32 | 39.83424 | 3.26260 | 21121 ft | 417 kts | 51° |
| 2026-05-06 13:33 | 39.85233 | 3.29214 | 21932 ft | 423 kts | 51° |
| 2026-05-06 13:33 | 39.87093 | 3.32253 | 22721 ft | 430 kts | 51° |
| 2026-05-06 13:33 | 39.88952 | 3.35294 | 23463 ft | 436 kts | 51° |
| 2026-05-06 13:33 | 39.90848 | 3.38398 | 24225 ft | 442 kts | 51° |
| 2026-05-06 13:34 | 39.92773 | 3.41554 | 24975 ft | 448 kts | 51° |
| 2026-05-06 13:34 | 39.94697 | 3.44709 | 25700 ft | 453 kts | 51° |
| 2026-05-06 13:34 | 39.96665 | 3.47940 | 26376 ft | 458 kts | 51° |
| 2026-05-06 13:34 | 39.98672 | 3.51238 | 26990 ft | 464 kts | 50° |
| 2026-05-06 13:35 | 40.00667 | 3.54521 | 27596 ft | 469 kts | 51° |
| 2026-05-06 13:35 | 40.02716 | 3.57896 | 28162 ft | 475 kts | 51° |
| 2026-05-06 13:35 | 40.04760 | 3.61265 | 28713 ft | 480 kts | 51° |
| 2026-05-06 13:35 | 40.06843 | 3.64703 | 29263 ft | 484 kts | 50° |
| 2026-05-06 13:36 | 40.08932 | 3.68154 | 29796 ft | 488 kts | 51° |
| 2026-05-06 13:36 | 40.11057 | 3.71668 | 30303 ft | 491 kts | 51° |
| 2026-05-06 13:36 | 40.13149 | 3.75132 | 30921 ft | 491 kts | 51° |
| 2026-05-06 13:36 | 40.15266 | 3.78641 | 31606 ft | 489 kts | 51° |
| 2026-05-06 13:37 | 40.17358 | 3.82111 | 32274 ft | 487 kts | 51° |
| 2026-05-06 13:37 | 40.19421 | 3.85537 | 32905 ft | 485 kts | 51° |
| 2026-05-06 13:37 | 40.21497 | 3.88989 | 33481 ft | 484 kts | 51° |
| 2026-05-06 13:37 | 40.23587 | 3.92466 | 34013 ft | 483 kts | 51° |
| 2026-05-06 13:38 | 40.25647 | 3.95898 | 34512 ft | 483 kts | 51° |
| 2026-05-06 13:38 | 40.27725 | 3.99363 | 34914 ft | 482 kts | 51° |
| 2026-05-06 13:38 | 40.29778 | 4.02789 | 35314 ft | 481 kts | 51° |
| 2026-05-06 13:38 | 40.31832 | 4.06223 | 35693 ft | 481 kts | 51° |
| 2026-05-06 13:39 | 40.33894 | 4.09673 | 36044 ft | 481 kts | 51° |
| 2026-05-06 13:39 | 40.35950 | 4.13118 | 36415 ft | 480 kts | 51° |
| 2026-05-06 13:39 | 40.38009 | 4.16569 | 36821 ft | 479 kts | 51° |
| 2026-05-06 13:39 | 40.40054 | 4.20003 | 37178 ft | 479 kts | 51° |
| 2026-05-06 13:40 | 40.42102 | 4.23447 | 37446 ft | 481 kts | 51° |
| 2026-05-06 13:40 | 40.44170 | 4.26815 | 37716 ft | 480 kts | 47° |
| 2026-05-06 13:40 | 40.46510 | 4.29986 | 37924 ft | 481 kts | 40° |
| 2026-05-06 13:41 | 40.51928 | 4.35210 | 37941 ft | 488 kts | 25° |
| 2026-05-06 13:41 | 40.58203 | 4.38548 | 37945 ft | 489 kts | 8° |
| 2026-05-06 13:42 | 40.64877 | 4.40238 | 37937 ft | 493 kts | 5° |
| 2026-05-06 13:42 | 40.71623 | 4.41871 | 37938 ft | 494 kts | 5° |
| 2026-05-06 13:43 | 40.78381 | 4.43507 | 37956 ft | 492 kts | 5° |
| 2026-05-06 13:43 | 40.85112 | 4.45137 | 37948 ft | 491 kts | 5° |
| 2026-05-06 13:44 | 40.91827 | 4.46765 | 37954 ft | 491 kts | 5° |
| 2026-05-06 13:44 | 40.98504 | 4.48388 | 37951 ft | 491 kts | 5° |
| 2026-05-06 13:45 | 41.05228 | 4.50024 | 37944 ft | 492 kts | 5° |
| 2026-05-06 13:45 | 41.15293 | 4.52478 | 37955 ft | 492 kts | 5° |
| 2026-05-06 13:46 | 41.22042 | 4.54126 | 37948 ft | 492 kts | 5° |
| 2026-05-06 13:46 | 41.28755 | 4.55768 | 37958 ft | 493 kts | 5° |
| 2026-05-06 13:47 | 41.35521 | 4.57427 | 37949 ft | 493 kts | 5° |
| 2026-05-06 13:47 | 41.42263 | 4.59083 | 37948 ft | 493 kts | 5° |
| 2026-05-06 13:48 | 41.49000 | 4.60741 | 37942 ft | 493 kts | 5° |
| 2026-05-06 13:48 | 41.55748 | 4.62405 | 37952 ft | 493 kts | 5° |
| 2026-05-06 13:49 | 41.62508 | 4.64076 | 37942 ft | 494 kts | 5° |
| 2026-05-06 13:49 | 41.69245 | 4.65744 | 37946 ft | 494 kts | 6° |
| 2026-05-06 13:50 | 41.75957 | 4.67702 | 37927 ft | 499 kts | 12° |
| 2026-05-06 13:50 | 41.82609 | 4.70354 | 37928 ft | 500 kts | 12° |
| 2026-05-06 13:51 | 41.89291 | 4.73018 | 37700 ft | 501 kts | 12° |
| 2026-05-06 13:51 | 41.92626 | 4.74349 | 37449 ft | 496 kts | 12° |
| 2026-05-06 13:51 | 41.95923 | 4.75665 | 37213 ft | 494 kts | 12° |
| 2026-05-06 13:52 | 41.99192 | 4.76970 | 36976 ft | 493 kts | 12° |
| 2026-05-06 13:52 | 42.02471 | 4.78279 | 36713 ft | 492 kts | 12° |
| 2026-05-06 13:52 | 42.05764 | 4.79596 | 36485 ft | 491 kts | 12° |
| 2026-05-06 13:52 | 42.09029 | 4.80901 | 36249 ft | 492 kts | 12° |
| 2026-05-06 13:53 | 42.12275 | 4.82201 | 36014 ft | 492 kts | 12° |
| 2026-05-06 13:53 | 42.15596 | 4.83530 | 35794 ft | 494 kts | 12° |
| 2026-05-06 13:53 | 42.18853 | 4.84836 | 35556 ft | 494 kts | 12° |
| 2026-05-06 13:53 | 42.22153 | 4.86161 | 35268 ft | 494 kts | 12° |
| 2026-05-06 13:54 | 42.25487 | 4.87500 | 34762 ft | 498 kts | 12° |
| 2026-05-06 13:54 | 42.28798 | 4.88831 | 34041 ft | 500 kts | 12° |
| 2026-05-06 13:54 | 42.32110 | 4.90165 | 33415 ft | 498 kts | 12° |
| 2026-05-06 13:54 | 42.35427 | 4.91502 | 32735 ft | 501 kts | 12° |
| 2026-05-06 13:55 | 42.38791 | 4.92860 | 32088 ft | 501 kts | 12° |
| 2026-05-06 13:55 | 42.42107 | 4.94201 | 31414 ft | 500 kts | 12° |
| 2026-05-06 13:55 | 42.45449 | 4.95555 | 30755 ft | 494 kts | 12° |
| 2026-05-06 13:55 | 42.48727 | 4.96884 | 30083 ft | 489 kts | 12° |
| 2026-05-06 13:56 | 42.51955 | 4.98195 | 29455 ft | 483 kts | 12° |
| 2026-05-06 13:56 | 42.55130 | 4.99463 | 28825 ft | 476 kts | 9° |
| 2026-05-06 13:56 | 42.58324 | 5.00107 | 28212 ft | 461 kts | 358° |
| 2026-05-06 13:56 | 42.61507 | 5.00439 | 27591 ft | 456 kts | 358° |
| 2026-05-06 13:57 | 42.64643 | 5.00779 | 26997 ft | 451 kts | 358° |
| 2026-05-06 13:57 | 42.67767 | 5.01119 | 26400 ft | 445 kts | 358° |
| 2026-05-06 13:57 | 42.70812 | 5.01449 | 25816 ft | 440 kts | 358° |
| 2026-05-06 13:57 | 42.73847 | 5.01778 | 25246 ft | 435 kts | 358° |
| 2026-05-06 13:58 | 42.76875 | 5.02106 | 24643 ft | 431 kts | 358° |
| 2026-05-06 13:58 | 42.79820 | 5.02554 | 24086 ft | 432 kts | 6° |
| 2026-05-06 13:58 | 42.82665 | 5.03855 | 23507 ft | 436 kts | 21° |
| 2026-05-06 13:58 | 42.85364 | 5.05701 | 22923 ft | 434 kts | 23° |
| 2026-05-06 13:59 | 42.88050 | 5.07556 | 22341 ft | 428 kts | 24° |
| 2026-05-06 13:59 | 42.90699 | 5.09382 | 21785 ft | 422 kts | 24° |
| 2026-05-06 13:59 | 42.93275 | 5.11202 | 21212 ft | 418 kts | 27° |
| 2026-05-06 13:59 | 42.95555 | 5.13601 | 20667 ft | 416 kts | 43° |
| 2026-05-06 14:00 | 42.97530 | 5.16474 | 20095 ft | 410 kts | 46° |
| 2026-05-06 14:00 | 42.99439 | 5.19289 | 19548 ft | 404 kts | 46° |
| 2026-05-06 14:00 | 43.01346 | 5.22097 | 19020 ft | 396 kts | 46° |
| 2026-05-06 14:00 | 43.03198 | 5.24825 | 18507 ft | 389 kts | 46° |
| 2026-05-06 14:01 | 43.05010 | 5.27496 | 17986 ft | 382 kts | 45° |
| 2026-05-06 14:01 | 43.06801 | 5.30136 | 17498 ft | 375 kts | 46° |
| 2026-05-06 14:01 | 43.08542 | 5.32702 | 17008 ft | 368 kts | 45° |
| 2026-05-06 14:01 | 43.10278 | 5.35262 | 16517 ft | 362 kts | 45° |
| 2026-05-06 14:02 | 43.11986 | 5.37783 | 16056 ft | 356 kts | 45° |
| 2026-05-06 14:02 | 43.13602 | 5.40294 | 15501 ft | 352 kts | 54° |
| 2026-05-06 14:02 | 43.14666 | 5.43284 | 14858 ft | 346 kts | 69° |
| 2026-05-06 14:02 | 43.15500 | 5.46292 | 14208 ft | 339 kts | 69° |
| 2026-05-06 14:03 | 43.16338 | 5.49265 | 13581 ft | 332 kts | 69° |
| 2026-05-06 14:03 | 43.17170 | 5.52216 | 12941 ft | 327 kts | 68° |
| 2026-05-06 14:03 | 43.17972 | 5.55063 | 12328 ft | 322 kts | 68° |
| 2026-05-06 14:03 | 43.18764 | 5.57872 | 11712 ft | 317 kts | 68° |
| 2026-05-06 14:04 | 43.19561 | 5.60701 | 11078 ft | 313 kts | 68° |
| 2026-05-06 14:04 | 43.20329 | 5.63423 | 10467 ft | 308 kts | 68° |
| 2026-05-06 14:04 | 43.21100 | 5.66159 | 9846 ft | 304 kts | 69° |
| 2026-05-06 14:04 | 43.21851 | 5.68827 | 9349 ft | 295 kts | 69° |
| 2026-05-06 14:05 | 43.22573 | 5.71387 | 8965 ft | 284 kts | 69° |
| 2026-05-06 14:05 | 43.23274 | 5.73876 | 8586 ft | 274 kts | 69° |
| 2026-05-06 14:05 | 43.23949 | 5.76272 | 8235 ft | 265 kts | 68° |
| 2026-05-06 14:05 | 43.24607 | 5.78604 | 7875 ft | 257 kts | 68° |
| 2026-05-06 14:06 | 43.25238 | 5.80843 | 7550 ft | 248 kts | 68° |
| 2026-05-06 14:06 | 43.25852 | 5.83024 | 7216 ft | 242 kts | 68° |
| 2026-05-06 14:06 | 43.26454 | 5.85162 | 6902 ft | 235 kts | 68° |
| 2026-05-06 14:06 | 43.27029 | 5.87204 | 6595 ft | 229 kts | 68° |
| 2026-05-06 14:07 | 43.27599 | 5.89232 | 6338 ft | 223 kts | 68° |
| 2026-05-06 14:07 | 43.28154 | 5.91205 | 6010 ft | 221 kts | 68° |
| 2026-05-06 14:07 | 43.28696 | 5.93134 | 5724 ft | 217 kts | 68° |
| 2026-05-06 14:07 | 43.29047 | 5.95133 | 5407 ft | 219 kts | 90° |
| 2026-05-06 14:08 | 43.28695 | 5.97200 | 4934 ft | 222 kts | 121° |
| 2026-05-06 14:08 | 43.27679 | 5.98669 | 4613 ft | 206 kts | 151° |
| 2026-05-06 14:08 | 43.26390 | 5.99300 | 4234 ft | 194 kts | 175° |
| 2026-05-06 14:08 | 43.25102 | 5.99540 | 4157 ft | 181 kts | 177° |
| 2026-05-06 14:09 | 43.23829 | 5.99768 | 3902 ft | 183 kts | 180° |
| 2026-05-06 14:09 | 43.22652 | 5.99423 | 3638 ft | 167 kts | 217° |
| 2026-05-06 14:09 | 43.21929 | 5.98270 | 3626 ft | 162 kts | 248° |
| 2026-05-06 14:09 | 43.21632 | 5.96787 | 3627 ft | 160 kts | 264° |
| 2026-05-06 14:10 | 43.21492 | 5.95274 | 3666 ft | 161 kts | 264° |
| 2026-05-06 14:10 | 43.21339 | 5.93748 | 3646 ft | 161 kts | 264° |
| 2026-05-06 14:10 | 43.21179 | 5.92208 | 3461 ft | 164 kts | 264° |
| 2026-05-06 14:10 | 43.21170 | 5.90773 | 3263 ft | 134 kts | 285° |
| 2026-05-06 14:11 | 43.21499 | 5.89634 | 3091 ft | 128 kts | 293° |
| 2026-05-06 14:11 | 43.21832 | 5.88532 | 2885 ft | 122 kts | 291° |
| 2026-05-06 14:11 | 43.22151 | 5.87449 | 2706 ft | 122 kts | 292° |
| 2026-05-06 14:11 | 43.22469 | 5.86385 | 2493 ft | 119 kts | 292° |
| 2026-05-06 14:12 | 43.22761 | 5.85326 | 2346 ft | 118 kts | 289° |
| 2026-05-06 14:12 | 43.23021 | 5.84250 | 2192 ft | 119 kts | 287° |
| 2026-05-06 14:12 | 43.23262 | 5.83158 | 2020 ft | 118 kts | 286° |
| 2026-05-06 14:12 | 43.23523 | 5.82098 | 1840 ft | 118 kts | 292° |
| 2026-05-06 14:13 | 43.23904 | 5.81107 | 1677 ft | 117 kts | 302° |
| 2026-05-06 14:13 | 43.24381 | 5.80174 | 1556 ft | 118 kts | 304° |
| 2026-05-06 14:13 | 43.24862 | 5.79262 | 1422 ft | 118 kts | 305° |
| 2026-05-06 14:13 | 43.25304 | 5.78439 | 1379 ft | 82 kts | 308° |
| 2026-05-06 14:14 | 43.25475 | 5.78128 | 1377 ft | 17 kts | 306° |
| 2026-05-06 14:14 | 43.25529 | 5.78047 | 1376 ft | 7 kts | 301° |
| 2026-05-06 14:14 | 43.25498 | 5.78082 | 1376 ft | 10 kts | 128° |
| 2026-05-06 14:14 | 43.25450 | 5.78169 | 1377 ft | 9 kts | 127° |
| 2026-05-06 14:15 | 43.25407 | 5.78178 | 1377 ft | 7 kts | 216° |
| 2026-05-06 14:15 | 43.25371 | 5.78146 | 1377 ft | 5 kts | 193° |
| 2026-05-06 14:15 | 43.25334 | 5.78182 | 1377 ft | 9 kts | 117° |
| 2026-05-06 14:15 | 43.25294 | 5.78257 | 1377 ft | 6 kts | 126° |
| 2026-05-06 14:16 | 43.25260 | 5.78306 | 1378 ft | 5 kts | 169° |
| 2026-05-06 14:16 | 43.25234 | 5.78279 | 1377 ft | 6 kts | 261° |
| 2026-05-06 14:16 | 43.25251 | 5.78238 | 1377 ft | 0 kts | 306° |